Time;durP1;ratioP1;P1;durP2;ratioP2;P2;SDS_P1;SDS_P2;PMS_P1;PMS_P2;Temp;Humidity;BMP_temperature;BMP_pressure;BME280_temperature;BME280_humidity;BME280_pressure;Samples;Min_cycle;Max_cycle;Signal;HPM_P1;HPM_P2
2021/11/02 00:01:29;;;;;;;281.73;269.43;;;6.30;99.90;;;;;;4405392;32;20162;-63
2021/11/02 00:03:56;;;;;;;320.77;307.10;;;6.20;99.90;;;;;;4405083;32;20239;-61
2021/11/02 00:06:23;;;;;;;313.17;299.30;;;6.20;99.90;;;;;;4406991;32;20280;-61
2021/11/02 00:08:51;;;;;;;323.03;309.37;;;6.20;99.90;;;;;;4406876;32;20563;-61
2021/11/02 00:11:17;;;;;;;303.20;290.00;;;6.20;99.90;;;;;;4409303;32;20159;-63
2021/11/02 00:13:51;;;;;;;296.70;283.50;;;6.20;99.90;;;;;;4403228;32;20168;-61
2021/11/02 00:16:22;;;;;;;315.77;302.57;;;6.30;99.90;;;;;;4394598;32;20136;-62
2021/11/02 00:18:57;;;;;;;307.30;293.97;;;6.20;99.90;;;;;;4373984;32;20156;-61
2021/11/02 00:21:24;;;;;;;298.77;285.87;;;6.20;99.90;;;;;;4388030;32;20171;-61
2021/11/02 00:23:57;;;;;;;298.57;285.77;;;6.20;99.90;;;;;;4394318;32;20150;-62
2021/11/02 00:26:24;;;;;;;289.43;277.10;;;6.20;99.90;;;;;;4392775;32;20188;-61
2021/11/02 00:28:52;;;;;;;295.67;282.80;;;6.20;99.90;;;;;;4394584;32;20159;-61
2021/11/02 00:31:19;;;;;;;275.97;264.10;;;6.20;99.90;;;;;;4392945;32;20155;-63
2021/11/02 00:33:46;;;;;;;301.50;288.27;;;6.20;99.90;;;;;;4394446;32;20495;-60
2021/11/02 00:36:12;;;;;;;317.73;303.60;;;6.20;99.90;;;;;;4392831;32;20174;-63
2021/11/02 00:38:39;;;;;;;288.27;275.50;;;6.10;99.90;;;;;;4393872;32;20136;-60
2021/11/02 00:41:06;;;;;;;285.10;272.53;;;6.00;99.90;;;;;;4392972;32;20156;-60
2021/11/02 00:43:35;;;;;;;304.60;291.20;;;6.00;99.90;;;;;;4394439;32;20176;-61
2021/11/02 00:46:03;;;;;;;292.97;280.10;;;6.00;99.90;;;;;;4393176;32;20137;-61
2021/11/02 00:48:30;;;;;;;313.27;299.83;;;6.00;99.90;;;;;;4392716;32;20219;-61
2021/11/02 00:50:57;;;;;;;299.27;286.33;;;6.00;99.90;;;;;;4385448;32;20144;-61
2021/11/02 00:53:25;;;;;;;310.33;297.03;;;6.10;99.90;;;;;;4392589;32;20576;-61
2021/11/02 00:55:52;;;;;;;303.27;290.13;;;6.10;99.90;;;;;;4392083;32;20186;-60
2021/11/02 00:58:20;;;;;;;330.83;316.73;;;6.00;99.90;;;;;;4392487;32;20140;-60
2021/11/02 01:00:47;;;;;;;320.40;306.70;;;6.10;99.90;;;;;;4392499;32;20136;-63
2021/11/02 01:03:15;;;;;;;304.33;291.33;;;6.00;99.90;;;;;;4392356;32;20650;-61
2021/11/02 01:05:42;;;;;;;297.10;284.23;;;6.00;99.90;;;;;;4393950;32;20509;-61
2021/11/02 01:08:09;;;;;;;300.77;287.90;;;6.00;99.90;;;;;;4392738;32;20171;-62
2021/11/02 01:10:35;;;;;;;294.43;281.93;;;6.00;99.90;;;;;;4394009;32;20505;-61
2021/11/02 01:13:02;;;;;;;305.63;292.33;;;6.00;99.90;;;;;;4393622;32;20577;-61
2021/11/02 01:15:33;;;;;;;300.60;287.53;;;6.00;99.90;;;;;;4393920;32;20160;-61
2021/11/02 01:18:00;;;;;;;299.70;286.80;;;6.00;99.90;;;;;;4393924;32;20553;-63
2021/11/02 01:20:28;;;;;;;289.00;276.37;;;6.00;99.90;;;;;;4387967;32;20144;-62
2021/11/02 01:22:56;;;;;;;281.77;269.73;;;6.00;99.90;;;;;;4391370;32;20144;-61
2021/11/02 01:25:23;;;;;;;300.90;288.03;;;6.00;99.90;;;;;;4393792;32;20587;-61
2021/11/02 01:27:51;;;;;;;313.70;300.27;;;5.90;99.90;;;;;;4392130;32;20166;-61
2021/11/02 01:30:18;;;;;;;286.43;273.60;;;5.90;99.90;;;;;;4388250;32;20182;-63
2021/11/02 01:32:45;;;;;;;289.03;276.47;;;5.90;99.90;;;;;;4390728;32;20618;-61
2021/11/02 01:35:12;;;;;;;300.50;287.43;;;5.90;99.90;;;;;;4384405;32;20215;-60
2021/11/02 01:37:40;;;;;;;302.27;289.40;;;5.90;99.90;;;;;;4378726;32;20493;-62
2021/11/02 01:40:10;;;;;;;306.00;292.83;;;5.80;99.90;;;;;;4378219;32;20141;-63
2021/11/02 01:42:39;;;;;;;298.77;285.80;;;5.80;99.90;;;;;;4378470;32;20159;-61
2021/11/02 01:45:07;;;;;;;308.27;294.80;;;5.90;99.90;;;;;;4376787;32;20140;-62
2021/11/02 01:47:35;;;;;;;298.00;284.93;;;5.80;99.90;;;;;;4377919;32;20592;-63
2021/11/02 01:50:06;;;;;;;308.67;295.30;;;5.80;99.90;;;;;;4388861;32;20139;-62
2021/11/02 01:52:33;;;;;;;309.90;296.47;;;5.80;99.90;;;;;;4407311;32;20215;-61
2021/11/02 01:55:01;;;;;;;287.47;274.83;;;5.80;99.90;;;;;;4406821;32;20590;-62
2021/11/02 01:57:28;;;;;;;306.73;293.20;;;5.80;99.90;;;;;;4407565;32;20480;-61
2021/11/02 01:59:55;;;;;;;298.07;285.07;;;5.80;99.90;;;;;;4406856;32;20195;-63
2021/11/02 02:02:26;;;;;;;296.17;283.13;;;5.80;99.90;;;;;;4406593;32;20148;-60
2021/11/02 02:05:05;;;;;;;289.07;276.57;;;5.70;99.90;;;;;;4407038;32;20269;-62
2021/11/02 02:07:39;;;;;;;291.43;278.80;;;5.70;99.90;;;;;;4407818;32;20170;-61
2021/11/02 02:10:15;;;;;;;276.00;264.17;;;5.70;99.90;;;;;;4407525;32;20136;-61
2021/11/02 02:13:01;;;;;;;312.83;299.00;;;5.70;99.90;;;;;;4407262;32;20468;-63
2021/11/02 02:15:41;;;;;;;288.17;275.13;;;5.70;99.90;;;;;;4393043;32;20163;-61
2021/11/02 02:18:13;;;;;;;299.10;286.13;;;5.70;99.90;;;;;;4408147;32;20496;-61
2021/11/02 02:21:02;;;;;;;305.40;292.47;;;5.70;99.90;;;;;;4406586;32;20169;-60
2021/11/02 02:23:52;;;;;;;287.57;274.23;;;5.70;99.90;;;;;;4406454;32;20156;-62
2021/11/02 02:26:35;;;;;;;305.50;292.30;;;5.70;99.90;;;;;;4406423;32;20169;-62
2021/11/02 02:29:05;;;;;;;289.97;277.10;;;5.70;99.90;;;;;;4408169;32;20155;-62
2021/11/02 02:31:36;;;;;;;298.00;284.67;;;5.70;99.90;;;;;;4406326;32;20151;-62
2021/11/02 02:34:04;;;;;;;296.10;283.00;;;5.70;99.90;;;;;;4405782;32;20215;-62
2021/11/02 02:36:33;;;;;;;287.30;274.50;;;5.70;99.90;;;;;;4391160;32;20135;-61
2021/11/02 02:39:02;;;;;;;302.93;289.27;;;5.60;99.90;;;;;;4391033;32;20159;-61
2021/11/02 02:41:30;;;;;;;298.23;284.57;;;5.70;99.90;;;;;;4387293;32;20576;-60
2021/11/02 02:43:57;;;;;;;302.93;289.27;;;5.70;99.90;;;;;;4385441;32;20162;-60
2021/11/02 02:46:27;;;;;;;296.20;282.83;;;5.60;99.90;;;;;;4391875;32;20146;-61
2021/11/02 02:48:56;;;;;;;280.67;268.10;;;5.60;99.90;;;;;;4389851;32;20159;-61
2021/11/02 02:51:23;;;;;;;318.33;303.33;;;5.60;99.90;;;;;;4387269;32;20486;-61
2021/11/02 02:53:50;;;;;;;284.03;270.57;;;5.60;99.90;;;;;;4390819;32;20216;-61
2021/11/02 02:56:19;;;;;;;298.10;284.40;;;5.60;99.90;;;;;;4392467;32;20226;-62
2021/11/02 02:58:48;;;;;;;304.63;290.50;;;5.60;99.90;;;;;;4399301;32;20190;-62
2021/11/02 03:01:17;;;;;;;316.87;302.30;;;5.60;99.90;;;;;;4391635;32;20581;-61
2021/11/02 03:03:49;;;;;;;302.40;288.40;;;5.60;99.90;;;;;;4398961;32;20573;-60
2021/11/02 03:06:21;;;;;;;299.60;286.37;;;5.60;99.90;;;;;;4407414;32;20161;-61
2021/11/02 03:08:48;;;;;;;292.93;279.20;;;5.60;99.90;;;;;;4407544;32;20636;-60
2021/11/02 03:11:17;;;;;;;311.40;297.20;;;5.60;99.90;;;;;;4405709;32;20191;-60
2021/11/02 03:13:48;;;;;;;292.00;277.93;;;5.60;99.90;;;;;;4407571;32;20152;-61
2021/11/02 03:16:17;;;;;;;308.07;293.23;;;5.60;99.90;;;;;;4395334;32;20658;-61
2021/11/02 03:19:18;;;;;;;301.10;287.07;;;5.60;99.90;;;;;;4392269;32;20136;-60
2021/11/02 03:44:13;;;;;;;293.03;279.10;;;5.50;99.90;;;;;;4391418;32;20143;-62
2021/11/02 03:49:38;;;;;;;291.77;278.03;;;5.50;99.90;;;;;;4346844;33;20149;-60
2021/11/02 03:54:27;;;;;;;297.10;283.43;;;5.50;99.90;;;;;;4359837;33;20319;-60
2021/11/02 03:55:06;;;;;;;282.33;268.97;;;5.50;99.90;;;;;;4332694;33;20173;-60
2021/11/02 03:57:40;;;;;;;290.13;276.27;;;5.50;99.90;;;;;;4338305;33;20173;-60
2021/11/02 04:00:41;;;;;;;301.77;287.80;;;5.50;99.90;;;;;;4349634;32;20180;-61
2021/11/02 05:07:31;;;;;;;270.53;258.43;;;5.20;99.90;;;;;;4435349;32;20162;-62
2021/11/02 05:10:28;;;;;;;265.13;252.80;;;5.20;99.90;;;;;;4433612;32;20147;-62
2021/11/02 05:46:49;;;;;;;276.10;264.07;;;5.50;99.90;;;;;;4316612;33;20158;-60
2021/11/02 05:49:25;;;;;;;283.30;270.97;;;5.60;99.90;;;;;;4326650;32;20176;-60
2021/11/02 05:57:26;;;;;;;277.97;265.40;;;5.80;99.90;;;;;;4379622;32;20609;-60
2021/11/02 05:59:56;;;;;;;282.70;269.63;;;5.80;99.90;;;;;;4373450;32;20160;-60
2021/11/02 06:05:25;;;;;;;280.30;267.60;;;5.80;99.90;;;;;;4316703;33;20230;-60
2021/11/02 06:08:22;;;;;;;284.10;271.87;;;5.80;99.90;;;;;;4317615;33;20174;-60
2021/11/02 06:11:09;;;;;;;279.07;266.87;;;5.90;99.90;;;;;;4307232;33;20178;-60
2021/11/02 06:27:59;;;;;;;290.27;277.33;;;5.90;99.90;;;;;;4363772;32;20206;-62
2021/11/02 06:30:28;;;;;;;278.67;266.10;;;5.90;99.90;;;;;;4372061;32;20235;-61
2021/11/02 06:33:04;;;;;;;300.97;287.87;;;6.00;99.90;;;;;;4369652;32;20538;-60
2021/11/02 06:35:35;;;;;;;275.23;263.37;;;6.00;99.90;;;;;;4373469;32;20686;-62
2021/11/02 06:38:43;;;;;;;304.33;291.00;;;6.00;99.90;;;;;;4372688;32;20176;-61
2021/11/02 06:58:35;;;;;;;279.67;267.27;;;6.20;99.90;;;;;;4242971;33;20648;-61
2021/11/02 07:18:03;;;;;;;294.37;281.47;;;6.40;99.90;;;;;;4200594;34;20220;-61
2021/11/02 07:20:41;;;;;;;304.97;291.60;;;6.40;99.90;;;;;;4210746;33;20168;-59
2021/11/02 07:23:26;;;;;;;295.10;282.03;;;6.50;99.90;;;;;;4242262;33;20596;-62
2021/11/02 07:26:03;;;;;;;309.07;295.47;;;6.60;99.90;;;;;;4240734;33;20163;-62
2021/11/02 08:47:28;;;;;;;336.67;321.47;;;8.20;99.90;;;;;;4286022;33;20169;-61
2021/11/02 08:49:55;;;;;;;369.50;352.43;;;8.30;99.90;;;;;;4286423;33;20295;-62
2021/11/02 08:52:23;;;;;;;371.57;354.50;;;8.40;99.90;;;;;;4290239;33;20214;-62
2021/11/02 08:54:51;;;;;;;364.60;348.03;;;8.40;99.90;;;;;;4292051;33;20186;-63
2021/11/02 08:57:21;;;;;;;362.57;345.30;;;8.40;99.90;;;;;;4299330;33;20280;-60
2021/11/02 08:59:49;;;;;;;371.17;354.33;;;8.50;99.90;;;;;;4345640;33;20203;-62
2021/11/02 09:02:26;;;;;;;379.50;361.67;;;8.50;99.90;;;;;;4357659;33;20219;-60
2021/11/02 09:05:02;;;;;;;366.07;349.07;;;8.60;99.90;;;;;;4390353;32;20476;-61
2021/11/02 09:07:30;;;;;;;338.07;322.13;;;8.60;99.90;;;;;;4416006;32;20167;-61
2021/11/02 09:09:59;;;;;;;308.90;294.90;;;8.60;99.90;;;;;;4417492;32;20179;-61
2021/11/02 09:12:31;;;;;;;331.83;316.97;;;8.60;99.90;;;;;;4420498;32;20488;-63
2021/11/02 09:15:00;;;;;;;329.53;314.47;;;8.60;99.90;;;;;;4411341;32;20175;-63
2021/11/02 09:17:31;;;;;;;324.43;309.57;;;8.60;99.90;;;;;;4420091;32;20160;-62
2021/11/02 09:20:00;;;;;;;306.70;292.60;;;8.60;99.90;;;;;;4408367;32;20234;-62
2021/11/02 09:22:27;;;;;;;335.03;319.67;;;8.60;99.90;;;;;;4413219;32;20153;-62
2021/11/02 09:24:54;;;;;;;351.27;335.20;;;8.50;99.90;;;;;;4416792;32;20483;-63
2021/11/02 09:27:25;;;;;;;333.33;317.53;;;8.60;99.90;;;;;;4419812;32;20521;-62
2021/11/02 09:29:53;;;;;;;313.60;298.70;;;8.50;99.90;;;;;;4411612;32;20240;-62
2021/11/02 09:32:21;;;;;;;350.27;333.70;;;8.40;99.90;;;;;;4423911;32;20596;-62
2021/11/02 09:34:48;;;;;;;320.60;305.63;;;8.50;99.90;;;;;;4421812;32;20184;-61
2021/11/02 09:37:17;;;;;;;360.20;343.20;;;8.40;99.90;;;;;;4422676;32;20538;-62
2021/11/02 09:39:48;;;;;;;360.17;343.17;;;8.40;99.90;;;;;;4422361;32;20221;-62
2021/11/02 09:42:37;;;;;;;354.53;337.67;;;8.50;99.90;;;;;;4421988;32;20206;-62
2021/11/02 09:45:45;;;;;;;344.47;327.93;;;8.50;99.90;;;;;;4422678;32;20173;-63
2021/11/02 09:48:53;;;;;;;340.10;324.17;;;8.50;99.90;;;;;;4421695;32;20155;-62
2021/11/02 09:52:12;;;;;;;322.50;306.90;;;8.60;99.90;;;;;;4421351;32;20199;-62
2021/11/02 09:55:15;;;;;;;317.07;301.97;;;8.60;99.90;;;;;;4352949;32;20170;-61
2021/11/02 09:58:07;;;;;;;338.40;322.67;;;8.70;99.90;;;;;;4358947;32;20634;-61
2021/11/02 10:01:08;;;;;;;335.63;320.13;;;8.60;99.90;;;;;;4317045;33;20166;-61
2021/11/02 10:04:19;;;;;;;360.63;344.00;;;8.70;99.90;;;;;;4316013;33;20237;-63
2021/11/02 10:07:12;;;;;;;327.73;312.17;;;8.80;99.90;;;;;;4272742;33;20676;-62
2021/11/02 10:09:57;;;;;;;350.27;333.93;;;8.70;99.90;;;;;;4261549;33;20206;-61
2021/11/02 10:12:28;;;;;;;344.07;328.47;;;8.80;99.90;;;;;;4273977;33;20268;-61
2021/11/02 10:15:09;;;;;;;371.00;353.53;;;8.80;99.90;;;;;;4282604;33;20212;-62
2021/11/02 10:18:21;;;;;;;364.40;347.47;;;9.00;99.90;;;;;;4271042;33;20214;-61
2021/11/02 10:21:14;;;;;;;360.63;343.80;;;9.00;99.90;;;;;;4260460;33;20624;-62
2021/11/02 10:24:19;;;;;;;377.97;360.43;;;9.00;99.90;;;;;;4272986;33;20202;-62
2021/11/02 10:27:03;;;;;;;334.30;318.57;;;9.10;99.90;;;;;;4265980;33;20250;-62
2021/11/02 10:30:06;;;;;;;361.60;345.03;;;9.10;99.90;;;;;;4257002;33;20417;-61
2021/11/02 10:32:35;;;;;;;344.17;328.37;;;9.30;99.90;;;;;;4319235;33;20168;-63
2021/11/02 10:35:05;;;;;;;354.97;338.50;;;9.30;99.90;;;;;;4318701;33;20187;-61
2021/11/02 10:37:40;;;;;;;387.17;369.93;;;9.30;99.90;;;;;;4328550;33;20604;-62
2021/11/02 10:40:27;;;;;;;353.50;337.20;;;9.40;99.90;;;;;;4350055;33;20187;-62
2021/11/02 10:43:33;;;;;;;355.73;339.37;;;9.40;99.90;;;;;;4347037;32;20508;-61
2021/11/02 10:46:04;;;;;;;330.27;315.33;;;9.40;99.90;;;;;;4366520;32;20230;-62
2021/11/02 10:48:40;;;;;;;336.73;321.40;;;9.40;99.90;;;;;;4352947;33;20187;-62
2021/11/02 10:51:10;;;;;;;325.87;310.77;;;9.40;99.90;;;;;;4344757;33;20204;-61
2021/11/02 10:53:41;;;;;;;306.43;293.07;;;9.40;99.90;;;;;;4346437;33;20186;-60
2021/11/02 10:56:21;;;;;;;295.67;282.47;;;9.30;99.90;;;;;;4345792;33;20233;-62
2021/11/02 10:58:50;;;;;;;329.47;314.50;;;9.30;99.90;;;;;;4344645;33;20243;-59
2021/11/02 11:01:18;;;;;;;346.07;330.03;;;9.40;99.90;;;;;;4345878;33;20208;-60
2021/11/02 11:03:49;;;;;;;341.10;325.93;;;9.50;99.90;;;;;;4407126;32;20183;-60
2021/11/02 11:06:20;;;;;;;330.87;315.80;;;9.40;99.90;;;;;;4406580;32;20258;-60
2021/11/02 11:08:49;;;;;;;327.33;312.37;;;9.50;99.90;;;;;;4408331;32;20544;-61
2021/11/02 11:11:18;;;;;;;344.53;329.10;;;9.50;99.90;;;;;;4408210;32;20690;-60
2021/11/02 11:13:47;;;;;;;356.63;340.30;;;9.50;99.90;;;;;;4418510;32;20160;-60
2021/11/02 11:16:16;;;;;;;328.20;313.60;;;9.60;99.90;;;;;;4422500;32;20207;-59
2021/11/02 11:18:56;;;;;;;356.93;340.97;;;9.70;99.90;;;;;;4421539;32;20151;-63
2021/11/02 11:21:26;;;;;;;349.27;333.13;;;9.70;99.90;;;;;;4421976;32;20188;-60
2021/11/02 11:24:04;;;;;;;342.70;327.13;;;9.80;99.90;;;;;;4421282;32;20155;-63
2021/11/02 11:26:32;;;;;;;334.37;319.13;;;9.80;99.90;;;;;;4421236;32;20151;-60
2021/11/02 11:29:03;;;;;;;346.57;331.10;;;9.70;99.90;;;;;;4422757;32;20169;-60
2021/11/02 11:31:30;;;;;;;324.37;309.73;;;9.80;99.90;;;;;;4422806;32;20153;-61
2021/11/02 11:34:01;;;;;;;347.90;332.37;;;9.80;99.90;;;;;;4419374;32;20217;-61
2021/11/02 11:36:30;;;;;;;312.80;298.30;;;9.80;99.90;;;;;;4418362;32;20174;-61
2021/11/02 11:39:01;;;;;;;327.83;312.77;;;9.80;99.90;;;;;;4424360;32;20158;-61
2021/11/02 11:41:33;;;;;;;351.13;335.33;;;9.70;99.90;;;;;;4426222;32;20599;-63
2021/11/02 11:44:03;;;;;;;340.10;324.50;;;9.80;99.90;;;;;;4433945;32;20181;-62
2021/11/02 11:46:32;;;;;;;329.33;314.37;;;9.80;99.90;;;;;;4421085;32;20219;-61
2021/11/02 11:49:00;;;;;;;351.73;335.77;;;9.90;99.90;;;;;;4416505;32;20179;-60
2021/11/02 11:51:31;;;;;;;359.10;342.73;;;10.00;99.90;;;;;;4418934;32;20600;-61
2021/11/02 11:54:00;;;;;;;347.23;331.47;;;10.20;99.90;;;;;;4408654;32;20203;-61
2021/11/02 11:56:33;;;;;;;328.10;313.53;;;10.10;99.90;;;;;;4410188;32;20230;-62
2021/11/02 11:59:01;;;;;;;323.77;309.30;;;10.10;99.90;;;;;;4411931;32;20214;-64
2021/11/02 12:01:36;;;;;;;323.27;308.83;;;10.00;99.90;;;;;;4415951;32;20231;-60
2021/11/02 12:04:10;;;;;;;337.37;322.57;;;10.00;99.90;;;;;;4408037;32;20661;-58
2021/11/02 12:06:46;;;;;;;361.93;345.83;;;10.00;99.90;;;;;;4419053;32;20207;-61
2021/11/02 12:09:18;;;;;;;311.20;297.27;;;10.20;99.90;;;;;;4414342;32;20501;-61
2021/11/02 12:11:46;;;;;;;332.87;318.00;;;10.20;99.90;;;;;;4405661;32;20176;-61
2021/11/02 12:14:20;;;;;;;365.23;348.93;;;10.30;99.90;;;;;;4414128;32;20195;-61
2021/11/02 12:16:48;;;;;;;317.17;303.13;;;10.50;99.90;;;;;;4416209;32;20160;-61
2021/11/02 12:19:20;;;;;;;313.87;299.73;;;10.50;99.90;;;;;;4418131;32;20178;-61
2021/11/02 12:22:03;;;;;;;316.67;302.83;;;10.60;99.90;;;;;;4418353;32;20147;-61
2021/11/02 12:24:33;;;;;;;304.97;291.47;;;10.60;99.90;;;;;;4418326;32;20165;-61
2021/11/02 12:27:12;;;;;;;299.17;286.27;;;10.80;99.90;;;;;;4417900;32;20223;-62
2021/11/02 12:29:41;;;;;;;285.67;273.10;;;11.00;99.90;;;;;;4418430;32;20650;-62
2021/11/02 12:32:11;;;;;;;282.83;270.53;;;11.10;99.90;;;;;;4418916;32;20177;-62
2021/11/02 12:34:47;;;;;;;282.90;270.70;;;11.20;99.90;;;;;;4418551;32;20611;-61
2021/11/02 12:37:16;;;;;;;218.90;209.20;;;11.20;99.90;;;;;;4420494;32;20155;-62
2021/11/02 12:39:43;;;;;;;219.33;209.67;;;11.10;99.90;;;;;;4419648;32;20154;-62
2021/11/02 12:42:11;;;;;;;189.03;180.47;;;11.10;99.90;;;;;;4420841;32;20156;-61
2021/11/02 12:44:39;;;;;;;186.90;178.70;;;11.00;99.90;;;;;;4421311;32;20606;-62
2021/11/02 12:47:11;;;;;;;188.93;180.43;;;10.90;99.90;;;;;;4421172;32;20252;-61
2021/11/02 12:49:41;;;;;;;166.93;159.13;;;10.80;99.90;;;;;;4419824;32;20587;-61
2021/11/02 12:52:10;;;;;;;171.93;164.03;;;10.80;99.90;;;;;;4423567;32;20213;-61
2021/11/02 12:54:40;;;;;;;178.10;169.97;;;10.70;99.90;;;;;;4423606;32;20185;-61
2021/11/02 12:57:10;;;;;;;160.23;152.90;;;10.50;99.90;;;;;;4424627;32;20205;-61
2021/11/02 12:59:43;;;;;;;155.10;147.93;;;10.40;99.90;;;;;;4422997;32;20887;-62
2021/11/02 13:02:19;;;;;;;171.47;163.67;;;10.30;99.90;;;;;;4421004;32;20150;-61
2021/11/02 13:04:51;;;;;;;179.03;170.83;;;10.20;99.90;;;;;;4424506;32;20207;-62
2021/11/02 13:07:18;;;;;;;178.17;170.17;;;10.20;99.90;;;;;;4423078;32;20232;-61
2021/11/02 13:09:51;;;;;;;173.67;165.60;;;10.10;99.90;;;;;;4421907;32;20175;-62
2021/11/02 13:12:24;;;;;;;182.23;174.10;;;10.20;99.90;;;;;;4421460;32;20155;-60
2021/11/02 13:14:52;;;;;;;195.40;186.77;;;10.30;99.90;;;;;;4424320;32;20181;-62
2021/11/02 13:17:23;;;;;;;198.97;190.23;;;10.40;99.90;;;;;;4424494;32;20169;-62
2021/11/02 13:19:53;;;;;;;197.57;188.93;;;10.40;99.90;;;;;;4424238;32;20241;-59
2021/11/02 13:22:21;;;;;;;193.27;184.60;;;10.30;99.90;;;;;;4423019;32;20493;-60
2021/11/02 13:25:07;;;;;;;201.30;192.10;;;10.20;99.90;;;;;;4423542;32;20201;-61
2021/11/02 13:27:39;;;;;;;176.07;168.20;;;10.10;99.90;;;;;;4422665;32;20186;-60
2021/11/02 13:30:25;;;;;;;214.87;205.63;;;10.00;99.90;;;;;;4422694;32;20246;-61
2021/11/02 13:33:04;;;;;;;208.00;199.17;;;10.00;99.90;;;;;;4422082;32;20146;-60
2021/11/02 13:35:48;;;;;;;265.17;253.80;;;10.00;99.90;;;;;;4420232;32;20213;-61
2021/11/02 13:38:37;;;;;;;294.57;281.77;;;10.10;99.90;;;;;;4423882;32;20624;-61
2021/11/02 13:41:09;;;;;;;305.13;292.23;;;10.20;99.90;;;;;;4376105;32;20187;-61
2021/11/02 13:43:38;;;;;;;329.33;314.90;;;10.30;99.90;;;;;;4374647;32;20561;-61
2021/11/02 13:46:06;;;;;;;297.73;284.93;;;10.40;99.90;;;;;;4376388;32;20450;-60
2021/11/02 13:48:34;;;;;;;293.30;280.97;;;10.50;99.90;;;;;;4374528;32;20755;-61
2021/11/02 13:51:02;;;;;;;259.73;248.73;;;10.50;99.90;;;;;;4376076;32;20540;-61
2021/11/02 13:53:32;;;;;;;271.97;260.37;;;10.30;99.90;;;;;;4375233;32;20187;-61
2021/11/02 13:56:00;;;;;;;283.93;271.90;;;10.30;99.90;;;;;;4376350;32;20206;-62
2021/11/02 13:58:28;;;;;;;259.70;248.23;;;10.20;99.90;;;;;;4374215;32;20168;-60
2021/11/02 14:00:55;;;;;;;279.90;267.97;;;10.10;99.90;;;;;;4374807;32;20679;-61
2021/11/02 14:03:26;;;;;;;257.97;246.70;;;10.20;99.90;;;;;;4374193;32;20703;-60
2021/11/02 14:05:54;;;;;;;271.40;259.43;;;10.10;99.90;;;;;;4374178;32;20505;-60
2021/11/02 14:08:22;;;;;;;264.37;252.90;;;10.10;99.90;;;;;;4374386;32;20173;-61
2021/11/02 14:10:54;;;;;;;282.40;270.13;;;10.10;99.90;;;;;;4374113;32;20187;-61
2021/11/02 14:13:45;;;;;;;276.17;264.47;;;10.00;99.90;;;;;;4374455;32;20161;-61
2021/11/02 14:16:13;;;;;;;255.30;244.27;;;9.90;99.90;;;;;;4374233;32;20193;-61
2021/11/02 14:18:41;;;;;;;265.10;253.73;;;9.90;99.90;;;;;;4411363;32;20182;-61
2021/11/02 14:21:09;;;;;;;267.20;255.97;;;9.80;99.90;;;;;;4418572;32;20159;-61
2021/11/02 14:23:39;;;;;;;270.93;259.23;;;9.80;99.90;;;;;;4421116;32;20198;-61
2021/11/02 14:26:25;;;;;;;276.33;264.30;;;9.70;99.90;;;;;;4420211;32;20175;-61
2021/11/02 14:28:55;;;;;;;276.80;264.70;;;9.70;99.90;;;;;;4417612;32;20153;-60
2021/11/02 14:31:52;;;;;;;284.83;272.73;;;9.60;99.90;;;;;;4420651;32;20160;-60
2021/11/02 14:34:50;;;;;;;295.93;282.97;;;9.60;99.90;;;;;;4421352;32;20198;-60
2021/11/02 14:37:18;;;;;;;297.33;284.60;;;9.60;99.90;;;;;;4419479;32;20642;-61
2021/11/02 14:40:04;;;;;;;316.50;302.90;;;9.60;99.90;;;;;;4423163;32;20203;-61
2021/11/02 14:42:51;;;;;;;332.93;318.67;;;9.60;99.90;;;;;;4416626;32;20160;-61
2021/11/02 14:45:20;;;;;;;342.17;327.07;;;9.60;99.90;;;;;;4419364;32;20153;-61
2021/11/02 14:47:48;;;;;;;352.97;337.70;;;9.60;99.90;;;;;;4421030;32;20220;-60
2021/11/02 14:50:35;;;;;;;343.90;329.10;;;9.60;99.90;;;;;;4423047;32;20162;-61
2021/11/02 14:53:12;;;;;;;321.27;307.03;;;9.60;99.90;;;;;;4419828;32;20195;-61
2021/11/02 14:55:54;;;;;;;354.27;339.07;;;9.50;99.90;;;;;;4420840;32;20164;-61
2021/11/02 14:58:51;;;;;;;336.07;321.33;;;9.60;99.90;;;;;;4422372;32;20577;-61
2021/11/02 15:01:26;;;;;;;343.17;328.30;;;9.60;99.90;;;;;;4420135;32;20174;-61
2021/11/02 15:03:55;;;;;;;338.13;323.33;;;9.60;99.90;;;;;;4418601;32;20173;-61
2021/11/02 15:06:28;;;;;;;323.07;309.37;;;9.50;99.90;;;;;;4418407;32;20170;-61
2021/11/02 15:08:55;;;;;;;354.40;339.37;;;9.50;99.90;;;;;;4416086;32;20171;-62
2021/11/02 15:11:22;;;;;;;326.80;312.70;;;9.40;99.90;;;;;;4416791;32;20162;-61
2021/11/02 15:13:51;;;;;;;353.40;338.17;;;9.40;99.90;;;;;;4419019;32;20188;-61
2021/11/02 15:16:18;;;;;;;354.10;338.83;;;9.40;99.90;;;;;;4419205;32;20242;-61
2021/11/02 15:18:49;;;;;;;333.60;318.97;;;9.40;99.90;;;;;;4418312;32;20175;-60
2021/11/02 15:21:21;;;;;;;340.93;326.20;;;9.40;99.90;;;;;;4417983;32;20182;-60
2021/11/02 15:23:50;;;;;;;344.77;329.50;;;9.40;99.90;;;;;;4414139;32;20179;-61
2021/11/02 15:26:17;;;;;;;333.63;319.37;;;9.40;99.90;;;;;;4406024;32;20170;-61
2021/11/02 15:28:46;;;;;;;344.00;329.00;;;9.40;99.90;;;;;;4407754;32;20170;-62
2021/11/02 15:31:15;;;;;;;347.20;332.33;;;9.40;99.90;;;;;;4411576;32;20513;-61
2021/11/02 15:33:43;;;;;;;365.13;349.23;;;9.50;99.90;;;;;;4410209;32;20212;-59
2021/11/02 15:36:19;;;;;;;339.23;324.33;;;9.50;99.90;;;;;;4419842;32;20171;-62
2021/11/02 15:39:00;;;;;;;348.30;333.37;;;9.50;99.90;;;;;;4405624;32;20159;-62
2021/11/02 15:41:28;;;;;;;347.70;332.53;;;9.40;99.90;;;;;;4405763;32;20208;-61
2021/11/02 15:43:57;;;;;;;355.47;340.27;;;9.40;99.90;;;;;;4405661;32;20179;-62
2021/11/02 15:46:25;;;;;;;342.23;327.57;;;9.30;99.90;;;;;;4405943;32;20159;-61
2021/11/02 15:48:55;;;;;;;348.70;333.57;;;9.20;99.90;;;;;;4406032;32;20182;-62
2021/11/02 15:51:25;;;;;;;339.23;324.47;;;9.20;99.90;;;;;;4409912;32;20542;-61
2021/11/02 15:53:52;;;;;;;367.80;352.10;;;9.10;99.90;;;;;;4408043;32;20177;-61
2021/11/02 15:56:24;;;;;;;333.37;319.30;;;9.10;99.90;;;;;;4412960;32;20211;-62
2021/11/02 15:58:57;;;;;;;342.80;328.30;;;9.00;99.90;;;;;;4412425;32;20197;-62
2021/11/02 16:01:33;;;;;;;315.87;302.70;;;9.00;99.90;;;;;;4407983;32;20528;-61
2021/11/02 16:04:20;;;;;;;319.93;306.33;;;8.90;99.90;;;;;;4417248;32;20189;-62
2021/11/02 16:07:07;;;;;;;322.10;308.50;;;8.80;99.90;;;;;;4415099;32;20187;-62
2021/11/02 16:09:46;;;;;;;320.60;307.07;;;8.80;99.90;;;;;;4418595;32;20215;-62
2021/11/02 16:12:16;;;;;;;304.17;291.47;;;8.70;99.90;;;;;;4417835;32;20475;-61
2021/11/02 16:14:49;;;;;;;331.13;317.43;;;8.60;99.90;;;;;;4419402;32;20193;-61
2021/11/02 16:17:16;;;;;;;328.60;315.00;;;8.60;99.90;;;;;;4418682;32;20185;-61
2021/11/02 16:19:44;;;;;;;350.47;335.73;;;8.60;99.90;;;;;;4418711;32;20254;-62
2021/11/02 16:22:12;;;;;;;330.20;316.57;;;8.60;99.90;;;;;;4419663;32;20178;-62
2021/11/02 16:24:41;;;;;;;319.43;306.07;;;8.60;99.90;;;;;;4417192;32;20191;-62
2021/11/02 16:27:21;;;;;;;325.03;311.57;;;8.60;99.90;;;;;;4418333;32;20258;-60
2021/11/02 16:29:49;;;;;;;305.77;293.17;;;8.60;99.90;;;;;;4418413;32;20186;-61
2021/11/02 16:32:21;;;;;;;321.40;308.00;;;8.60;99.90;;;;;;4417014;32;20177;-61
2021/11/02 16:34:48;;;;;;;310.67;297.97;;;8.50;99.90;;;;;;4416718;32;20150;-60
2021/11/02 16:37:30;;;;;;;325.20;311.90;;;8.40;99.90;;;;;;4420703;32;20176;-60
2021/11/02 16:40:16;;;;;;;315.63;302.50;;;8.50;99.90;;;;;;4416415;32;20164;-61
2021/11/02 16:42:51;;;;;;;311.60;298.83;;;8.40;99.90;;;;;;4419519;32;20163;-60
2021/11/02 16:45:18;;;;;;;330.53;316.80;;;8.30;99.90;;;;;;4416958;32;20238;-62
2021/11/02 16:47:47;;;;;;;316.87;303.83;;;8.30;99.90;;;;;;4420062;32;20173;-60
2021/11/02 16:50:15;;;;;;;307.00;294.13;;;8.30;99.90;;;;;;4418719;32;20582;-59
2021/11/02 16:52:43;;;;;;;315.87;302.70;;;8.20;99.90;;;;;;4420540;32;20255;-60
2021/11/02 16:55:11;;;;;;;316.57;303.27;;;8.20;99.90;;;;;;4419058;32;20231;-59
2021/11/02 16:57:38;;;;;;;315.80;302.80;;;8.30;99.90;;;;;;4419076;32;20253;-60
2021/11/02 17:00:10;;;;;;;340.43;326.57;;;8.20;99.90;;;;;;4418245;32;20197;-62
2021/11/02 17:02:39;;;;;;;315.57;302.73;;;8.20;99.90;;;;;;4418444;32;20164;-61
2021/11/02 17:05:09;;;;;;;313.23;300.43;;;8.20;99.90;;;;;;4417155;32;20230;-61
2021/11/02 17:07:39;;;;;;;319.30;306.23;;;8.20;99.90;;;;;;4416671;32;20157;-61